Home   Weather   USA   Garland   Past weeks
Flag for USA

Past Weather in Garland, Texas, USA — Yesterday and Last 2 Weeks

Currently: 70 °F. Clear. (Weather station: Mesquite Metro Airport, USA). See more current weather

Past Weather in Garland — Graph

°F

Garland Temperature Yesterday

Maximum temperature yesterday: 55 °F (at 2:50 pm)
Minimum temperature yesterday: 46 °F (at 6:35 am)
Average temperature yesterday: 49 °F

High & Low Weather Summary for the Past Weeks

 TemperatureHumidityPressure
High79 °F (Nov 29, 1:50 pm)100% (Nov 23, 9:50 pm)30.47 "Hg (Nov 23, 9:50 pm)
Low34 °F (Dec 1, 6:50 am)27% (Nov 30, 12:50 pm)29.68 "Hg (Nov 29, 1:50 pm)
Average51 °F80%30.12 "Hg
* Reported Nov 20 6:50 pm — Dec 5 6:50 pm, Garland. Weather by CustomWeather, © 2022

Note: Actual official high and low records may vary slightly from our data, if they occured in-between our weather recording intervals... More about our weather records

Garland Weather History for the Previous 24 Hours

Scroll right to see more
 ConditionsComfort  
Time TempWeatherWind HumidityBarometerVisibility
6:50 pm
Mon, Dec 5
70 °FClear.12 mph83%29.79 "Hg10 mi
4:50 pm73 °FPassing clouds.16 mph74%29.77 "Hg10 mi
3:50 pm75 °FScattered clouds.17 mph69%29.77 "Hg10 mi
2:50 pm73 °FPartly sunny.15 mph74%29.78 "Hg10 mi
1:50 pm73 °FPartly sunny.16 mph74%29.80 "Hg10 mi
12:50 pm70 °FMostly cloudy.14 mph78%29.83 "Hg7 mi
11:50 am64 °FOvercast.17 mph94%29.85 "Hg7 mi
10:50 am64 °FFog.17 mph94%29.89 "Hg5 mi
9:50 am63 °FFog.13 mph94%29.91 "Hg3 mi
8:50 am57 °FFog.12 mph100%29.91 "Hg2 mi
7:50 am55 °FFog.12 mph100%29.92 "Hg3 mi
6:50 am55 °FFog.7 mph100%29.92 "Hg3 mi
5:55 am54 °FLow clouds.6 mph100%29.93 "Hg5 mi
5:35 am54 °FMostly cloudy.6 mph100%29.92 "Hg5 mi
5:15 am54 °FMostly cloudy.5 mph100%29.92 "Hg5 mi
4:55 am54 °FLow clouds.9 mph100%29.93 "Hg5 mi
4:35 am53 °FMostly cloudy.7 mph100%29.94 "Hg5 mi
4:15 am53 °FOvercast.7 mph100%29.94 "Hg4 mi
3:55 am53 °FMostly cloudy.6 mph100%29.95 "Hg4 mi
3:35 am53 °FMostly cloudy.7 mph100%29.96 "Hg3 mi
3:15 am52 °FLow clouds.6 mph100%29.97 "Hg3 mi
2:55 am52 °FLow clouds.7 mph100%29.97 "Hg3 mi
2:35 am52 °FLow clouds.7 mph100%29.99 "Hg3 mi
2:15 am52 °FLow clouds.7 mph100%29.99 "Hg3 mi
1:35 am51 °FLow clouds.No wind100%30.01 "Hg4 mi
12:55 am51 °FLow clouds.6 mph100%30.01 "Hg4 mi
12:35 am51 °FLow clouds.7 mph100%30.02 "Hg4 mi
12:15 am51 °FLow clouds.7 mph100%30.03 "Hg5 mi
11:55 pm
Sun, Dec 4
51 °FLow clouds.7 mph100%30.05 "Hg5 mi
11:35 pm51 °FLow clouds.5 mph100%30.06 "Hg5 mi
11:15 pm50 °FMostly cloudy.6 mph100%30.06 "Hg5 mi
10:55 pm50 °FMostly cloudy.7 mph100%30.07 "Hg5 mi
10:35 pm50 °FLow clouds.5 mph100%30.07 "Hg5 mi
10:15 pm50 °FLow clouds.6 mph100%30.08 "Hg5 mi
9:55 pm50 °FLow clouds.6 mph100%30.08 "Hg4 mi
9:35 pm50 °FLow clouds.7 mph100%30.09 "Hg4 mi
9:15 pm49 °FMostly cloudy.5 mph100%30.09 "Hg5 mi
8:55 pm49 °FMostly cloudy.3 mph100%30.10 "Hg5 mi
7:50 pm48 °FFog.3 mph100%30.12 "Hg2 mi
Weather by CustomWeather, © 2022

See weather overview